createdAt,value
2018-07-27T00:01:39.204Z,65.60
2018-07-27T00:04:43.458Z,65.50
2018-07-27T00:07:47.759Z,65.60
2018-07-27T00:10:51.915Z,65.60
2018-07-27T00:13:56.278Z,65.50
2018-07-27T00:17:00.464Z,65.50
2018-07-27T00:20:04.859Z,65.40
2018-07-27T00:23:57.442Z,65.10
2018-07-27T00:27:01.770Z,66.50
2018-07-27T00:30:07.441Z,66.40
2018-07-27T00:33:11.818Z,66.80
2018-07-27T00:36:16.065Z,66.80
2018-07-27T00:39:20.418Z,66.90
2018-07-27T00:42:24.646Z,66.90
2018-07-27T00:45:28.932Z,67.70
2018-07-27T00:48:33.777Z,67.20
2018-07-27T00:51:38.098Z,67.60
2018-07-27T00:54:42.616Z,67.60
2018-07-27T00:57:47.049Z,67.80
2018-07-27T01:00:51.269Z,68.10
2018-07-27T01:03:55.589Z,68.10
2018-07-27T01:06:59.946Z,68.40
2018-07-27T01:10:05.077Z,68.30
2018-07-27T01:13:09.351Z,68.30
2018-07-27T01:16:13.708Z,68.50
2018-07-27T01:19:18.102Z,68.80
2018-07-27T01:22:22.126Z,68.70
2018-07-27T01:25:26.315Z,68.70
2018-07-27T01:28:30.454Z,68.70
2018-07-27T01:31:34.818Z,68.90
2018-07-27T01:34:39.185Z,68.80
2018-07-27T01:37:48.408Z,68.90
2018-07-27T01:40:52.793Z,68.90
2018-07-27T01:43:57.048Z,69.00
2018-07-27T01:47:01.320Z,69.10
2018-07-27T01:50:06.290Z,69.40
2018-07-27T01:53:10.553Z,69.40
2018-07-27T01:56:14.940Z,69.20
2018-07-27T01:59:19.456Z,69.20
2018-07-27T02:02:23.645Z,69.20
2018-07-27T02:05:28.072Z,69.20
2018-07-27T02:08:32.432Z,69.30
2018-07-27T02:11:36.811Z,69.20
2018-07-27T02:14:41.163Z,69.20
2018-07-27T02:17:45.973Z,69.40
2018-07-27T02:20:50.331Z,70.00
2018-07-27T02:23:54.696Z,69.50
2018-07-27T02:26:59.168Z,69.70
2018-07-27T02:30:03.550Z,69.80
2018-07-27T02:33:08.002Z,69.80
2018-07-27T02:36:12.246Z,69.90
2018-07-27T02:39:17.730Z,69.80
2018-07-27T02:42:22.179Z,69.70
2018-07-27T02:45:27.367Z,69.60
2018-07-27T02:48:31.668Z,69.70
2018-07-27T02:51:36.472Z,69.60
2018-07-27T02:54:40.838Z,69.60
2018-07-27T02:57:45.203Z,69.60
2018-07-27T03:00:49.495Z,69.70
2018-07-27T03:03:53.872Z,69.80
2018-07-27T03:06:58.132Z,69.70
2018-07-27T03:10:02.415Z,69.50
2018-07-27T03:13:07.048Z,69.60
2018-07-27T03:16:11.387Z,69.60
2018-07-27T03:19:15.730Z,69.70
2018-07-27T03:22:20.051Z,69.40
2018-07-27T03:25:24.331Z,69.50
2018-07-27T03:28:28.886Z,69.40
2018-07-27T03:31:33.206Z,69.30
2018-07-27T03:34:44.544Z,69.10
2018-07-27T03:37:48.990Z,68.70
2018-07-27T03:40:53.327Z,68.70
2018-07-27T03:43:57.647Z,68.80
2018-07-27T03:47:02.168Z,68.80
2018-07-27T03:50:06.470Z,68.70
2018-07-27T03:53:11.228Z,68.80
2018-07-27T03:56:16.095Z,68.70
2018-07-27T03:59:20.594Z,68.80
2018-07-27T04:02:25.000Z,68.80
2018-07-27T04:05:29.378Z,68.70
2018-07-27T04:08:33.761Z,68.60
2018-07-27T04:11:38.226Z,68.30
2018-07-27T04:14:42.459Z,68.00
2018-07-27T04:17:52.139Z,67.90
2018-07-27T04:20:56.897Z,67.60
2018-07-27T04:24:01.249Z,67.40
2018-07-27T04:27:05.561Z,67.30
2018-07-27T04:30:09.889Z,67.00
2018-07-27T04:33:14.115Z,66.80
2018-07-27T04:36:18.406Z,66.40
2018-07-27T04:39:22.685Z,66.10
2018-07-27T04:42:27.008Z,66.00
2018-07-27T04:45:31.490Z,65.70
2018-07-27T04:48:35.871Z,65.30
2018-07-27T04:51:40.355Z,64.80
2018-07-27T04:54:44.676Z,64.10
2018-07-27T04:57:48.830Z,63.00
2018-07-27T05:00:53.243Z,62.30
2018-07-27T05:03:57.463Z,61.20
2018-07-27T05:07:01.959Z,60.80
2018-07-27T05:10:11.655Z,59.50
2018-07-27T05:13:16.123Z,58.80
2018-07-27T05:16:20.435Z,58.60
2018-07-27T05:19:24.622Z,58.50
2018-07-27T05:22:30.591Z,58.30
2018-07-27T05:25:35.177Z,57.80
2018-07-27T05:31:43.379Z,57.10
2018-07-27T05:34:47.822Z,57.10
2018-07-27T05:37:52.410Z,56.60
2018-07-27T05:40:56.857Z,56.20
2018-07-27T05:44:00.930Z,55.80
2018-07-27T05:47:05.355Z,55.50
2018-07-27T05:50:09.641Z,56.00
2018-07-27T05:53:13.964Z,56.00
2018-07-27T05:56:18.254Z,55.70
2018-07-27T05:59:22.608Z,55.50
2018-07-27T06:02:26.963Z,54.80
2018-07-27T06:05:31.453Z,54.60
2018-07-27T06:08:35.746Z,53.10
2018-07-27T06:11:40.137Z,52.00
2018-07-27T06:14:44.594Z,51.90
2018-07-27T06:17:48.969Z,51.20
2018-07-27T06:20:53.253Z,50.90
2018-07-27T06:23:57.744Z,50.20
2018-07-27T06:27:02.267Z,49.70
2018-07-27T06:30:07.221Z,49.00
2018-07-27T06:33:11.426Z,48.10
2018-07-27T06:36:15.782Z,46.50
2018-07-27T06:39:20.191Z,44.70
2018-07-27T06:42:24.493Z,43.70
2018-07-27T06:45:28.823Z,42.50
2018-07-27T06:48:33.962Z,41.30
2018-07-27T06:51:38.480Z,40.40
2018-07-27T06:54:48.671Z,38.50
2018-07-27T06:57:53.375Z,36.90
2018-07-27T07:00:58.122Z,35.80
2018-07-27T07:04:02.459Z,35.10
2018-07-27T07:07:06.823Z,34.10
2018-07-27T07:10:11.603Z,32.90
2018-07-27T07:13:16.060Z,32.50
2018-07-27T07:16:20.518Z,31.20
2018-07-27T07:19:24.832Z,29.70
2018-07-27T07:22:29.351Z,28.70
2018-07-27T07:25:33.535Z,27.60
2018-07-27T07:28:37.775Z,26.80
2018-07-27T07:31:41.948Z,26.10
2018-07-27T07:34:46.291Z,24.80
2018-07-27T07:37:51.491Z,23.70
2018-07-27T07:40:55.916Z,22.70
2018-07-27T07:44:00.305Z,22.20
2018-07-27T07:47:08.656Z,21.70
2018-07-27T07:50:14.043Z,21.50
2018-07-27T07:53:18.574Z,20.90
2018-07-27T07:56:22.917Z,20.40
2018-07-27T07:59:28.374Z,19.80
2018-07-27T08:02:32.810Z,19.40
2018-07-27T08:05:37.147Z,19.60
2018-07-27T08:08:41.281Z,19.90
2018-07-27T08:11:45.491Z,19.30
2018-07-27T08:14:50.365Z,18.90
2018-07-27T08:17:54.974Z,18.60
2018-07-27T08:20:59.601Z,18.90
2018-07-27T08:24:04.058Z,19.40
2018-07-27T08:27:09.818Z,20.40
2018-07-27T08:30:15.286Z,21.50
2018-07-27T08:33:19.198Z,23.30
2018-07-27T08:36:23.120Z,24.70
2018-07-27T08:39:29.007Z,25.90
2018-07-27T08:42:32.923Z,27.10
2018-07-27T08:45:37.247Z,27.30
2018-07-27T08:48:41.926Z,27.70
2018-07-27T08:51:46.307Z,28.10
2018-07-27T08:54:50.963Z,28.60
2018-07-27T08:57:55.202Z,30.60
2018-07-27T09:00:59.524Z,31.70
2018-07-27T09:04:03.849Z,32.20
2018-07-27T09:07:08.400Z,32.80
2018-07-27T09:10:13.496Z,33.00
2018-07-27T09:13:17.934Z,33.20
2018-07-27T09:16:22.463Z,33.80
2018-07-27T09:19:26.648Z,34.50
2018-07-27T09:22:30.999Z,35.10
2018-07-27T09:25:35.309Z,35.00
2018-07-27T09:28:39.872Z,35.90
2018-07-27T09:31:44.136Z,36.30
2018-07-27T09:34:48.457Z,36.70
2018-07-27T09:37:52.800Z,36.60
2018-07-27T09:40:57.552Z,36.20
2018-07-27T09:44:01.888Z,35.80
2018-07-27T09:47:09.680Z,34.40
2018-07-27T09:50:13.967Z,34.50
2018-07-27T09:53:18.909Z,35.80
2018-07-27T09:56:23.360Z,35.70
2018-07-27T09:59:27.645Z,35.00
2018-07-27T10:02:32.047Z,34.30
2018-07-27T10:05:36.328Z,34.40
2018-07-27T10:08:40.591Z,34.80
2018-07-27T10:14:48.658Z,33.20
2018-07-27T10:17:56.722Z,33.20
2018-07-27T10:21:01.287Z,32.40
2018-07-27T10:24:05.818Z,32.70
2018-07-27T10:27:10.303Z,32.90
2018-07-27T10:30:14.576Z,32.80
2018-07-27T10:33:18.987Z,33.50
2018-07-27T10:36:23.989Z,32.80
2018-07-27T10:39:28.199Z,32.30
2018-07-27T10:42:32.863Z,32.20
2018-07-27T10:45:37.176Z,32.90
2018-07-27T10:48:41.586Z,32.50
2018-07-27T10:51:45.946Z,31.90
2018-07-27T10:54:50.218Z,31.80
2018-07-27T10:57:54.398Z,32.00
2018-07-27T11:00:58.690Z,32.10
2018-07-27T11:04:03.541Z,31.70
2018-07-27T11:07:07.987Z,32.30
2018-07-27T11:10:12.829Z,32.50
2018-07-27T11:13:16.861Z,33.10
2018-07-27T11:16:21.347Z,30.10
2018-07-27T11:19:25.655Z,30.20
2018-07-27T11:22:30.032Z,30.00
2018-07-27T11:25:34.337Z,30.50
2018-07-27T11:28:38.677Z,30.90
2018-07-27T11:31:43.028Z,31.40
2018-07-27T11:34:47.275Z,31.30
2018-07-27T11:37:51.866Z,31.70
2018-07-27T11:44:00.264Z,31.80
2018-07-27T11:47:04.878Z,32.00
2018-07-27T11:50:09.423Z,32.20
2018-07-27T11:53:13.749Z,32.40
2018-07-27T11:56:18.160Z,32.30
2018-07-27T11:59:22.597Z,32.90
2018-07-27T12:02:27.064Z,33.60
2018-07-27T12:05:31.556Z,34.30
2018-07-27T12:08:38.130Z,34.70
2018-07-27T12:11:42.675Z,34.20
2018-07-27T12:14:47.129Z,34.10
2018-07-27T12:17:51.511Z,34.00
2018-07-27T12:20:56.005Z,34.30
2018-07-27T12:24:00.658Z,32.40
2018-07-27T12:27:04.993Z,32.40
2018-07-27T12:30:09.679Z,32.30
2018-07-27T12:33:14.375Z,32.30
2018-07-27T12:36:18.823Z,31.60
2018-07-27T12:39:23.332Z,31.70
2018-07-27T12:42:28.180Z,30.70
2018-07-27T12:45:32.463Z,30.00
2018-07-27T12:48:38.925Z,30.00
2018-07-27T12:51:43.211Z,29.70
2018-07-27T12:54:47.151Z,29.50
2018-07-27T12:57:51.553Z,29.60
2018-07-27T13:00:55.595Z,28.80
2018-07-27T13:04:00.067Z,28.90
2018-07-27T13:07:04.366Z,28.70
2018-07-27T13:13:18.606Z,30.00
2018-07-27T13:16:23.086Z,29.40
2018-07-27T13:19:27.504Z,29.60
2018-07-27T13:22:31.954Z,29.90
2018-07-27T13:25:36.247Z,30.40
2018-07-27T13:28:40.854Z,30.60
2018-07-27T13:34:55.889Z,30.50
2018-07-27T13:38:01.038Z,31.80
2018-07-27T13:41:05.878Z,29.60
2018-07-27T13:44:10.306Z,32.30
2018-07-27T13:47:14.938Z,31.80
2018-07-27T13:50:19.230Z,31.90
2018-07-27T13:53:23.909Z,29.00
2018-07-27T13:56:28.323Z,29.50
2018-07-27T13:59:33.762Z,30.90
2018-07-27T14:02:38.002Z,32.10
2018-07-27T14:05:42.374Z,30.30
2018-07-27T14:11:50.510Z,32.00
2018-07-27T14:14:54.837Z,30.90
2018-07-27T14:17:58.914Z,32.40
2018-07-27T14:21:03.093Z,32.20
2018-07-27T14:24:07.415Z,32.80
2018-07-27T14:27:11.781Z,34.00
2018-07-27T14:30:16.028Z,34.50
2018-07-27T14:33:20.243Z,34.20
2018-07-27T14:36:24.747Z,34.50
2018-07-27T14:39:28.960Z,35.40
2018-07-27T14:42:33.205Z,35.20
2018-07-27T14:45:37.538Z,35.50
2018-07-27T14:48:42.679Z,35.50
2018-07-27T14:51:46.980Z,35.40
2018-07-27T14:54:51.394Z,36.10
2018-07-27T14:57:55.800Z,35.60
2018-07-27T15:01:00.141Z,36.00
2018-07-27T15:04:04.508Z,36.10
2018-07-27T15:07:09.021Z,35.60
2018-07-27T15:10:13.545Z,35.20
2018-07-27T15:13:17.882Z,34.80
2018-07-27T15:16:22.834Z,34.40
2018-07-27T15:19:27.151Z,35.50
2018-07-27T15:22:31.779Z,34.50
2018-07-27T15:25:36.206Z,35.80
2018-07-27T15:28:40.724Z,35.80
2018-07-27T15:31:45.586Z,36.10
2018-07-27T15:34:55.575Z,36.30
2018-07-27T15:38:00.069Z,36.40
2018-07-27T15:41:04.562Z,36.00
2018-07-27T15:44:08.729Z,35.30
2018-07-27T15:47:14.103Z,35.70
2018-07-27T15:50:18.475Z,35.30
2018-07-27T15:56:26.568Z,35.10
2018-07-27T15:59:30.850Z,34.20
2018-07-27T16:02:35.090Z,32.60
2018-07-27T16:05:39.615Z,32.10
2018-07-27T16:08:43.941Z,33.00
2018-07-27T16:11:49.101Z,33.30
2018-07-27T16:14:53.418Z,33.70
2018-07-27T16:17:57.615Z,33.90
2018-07-27T16:21:01.482Z,34.80
2018-07-27T16:24:06.022Z,34.80
2018-07-27T16:27:10.124Z,36.10
2018-07-27T16:30:14.483Z,36.10
2018-07-27T16:33:18.855Z,36.50
2018-07-27T16:36:23.260Z,37.70
2018-07-27T16:39:27.454Z,38.10
2018-07-27T16:42:31.758Z,37.70
2018-07-27T16:45:36.020Z,37.90
2018-07-27T16:48:40.566Z,38.30
2018-07-27T16:51:44.935Z,39.00
2018-07-27T16:54:49.405Z,39.70
2018-07-27T16:57:53.346Z,40.40
2018-07-27T17:00:57.317Z,41.10
2018-07-27T17:04:01.683Z,42.50
2018-07-27T17:07:06.016Z,42.30
2018-07-27T17:10:09.988Z,42.20
2018-07-27T17:13:14.002Z,42.50
2018-07-27T17:16:18.052Z,42.80
2018-07-27T17:19:21.932Z,43.00
2018-07-27T17:22:26.307Z,43.20
2018-07-27T17:28:34.531Z,44.10
2018-07-27T17:31:39.226Z,44.50
2018-07-27T17:34:43.443Z,45.00
2018-07-27T17:37:47.771Z,45.10
2018-07-27T17:40:52.216Z,45.40
2018-07-27T17:43:56.399Z,45.60
2018-07-27T17:47:00.834Z,45.90
2018-07-27T17:50:05.219Z,45.90
2018-07-27T17:53:09.564Z,45.50
2018-07-27T17:56:13.981Z,45.60
2018-07-27T17:59:18.365Z,45.50
2018-07-27T18:02:22.576Z,45.70
2018-07-27T18:05:26.997Z,45.80
2018-07-27T18:08:31.310Z,46.10
2018-07-27T18:11:35.638Z,46.40
2018-07-27T18:14:39.980Z,46.80
2018-07-27T18:17:44.265Z,47.50
2018-07-27T18:20:48.653Z,47.80
2018-07-27T18:23:53.015Z,48.00
2018-07-27T18:26:57.354Z,48.00
2018-07-27T18:30:01.682Z,48.00
2018-07-27T18:33:06.345Z,48.30
2018-07-27T18:36:10.823Z,48.10
2018-07-27T18:39:15.096Z,48.50
2018-07-27T18:42:19.610Z,48.70
2018-07-27T18:45:24.145Z,49.00
2018-07-27T18:48:28.558Z,49.40
2018-07-27T18:51:32.805Z,49.80
2018-07-27T18:54:37.241Z,49.80
2018-07-27T18:57:41.663Z,50.00
2018-07-27T19:00:46.131Z,50.60
2018-07-27T19:03:50.454Z,49.70
2018-07-27T19:06:55.046Z,49.30
2018-07-27T19:09:59.553Z,49.40
2018-07-27T19:13:04.075Z,49.80
2018-07-27T19:16:14.108Z,50.20
2018-07-27T19:19:18.524Z,51.70
2018-07-27T19:22:23.156Z,51.70
2018-07-27T19:28:31.519Z,51.80
2018-07-27T19:31:35.814Z,51.70
2018-07-27T19:34:40.266Z,51.30
2018-07-27T19:37:45.673Z,50.70
2018-07-27T19:41:02.205Z,51.00
2018-07-27T19:44:07.299Z,51.80
2018-07-27T19:47:11.840Z,52.00
2018-07-27T19:50:16.127Z,52.80
2018-07-27T19:53:20.549Z,54.20
2018-07-27T19:56:25.058Z,52.20
2018-07-27T19:59:29.533Z,52.70
2018-07-27T20:02:33.719Z,51.50
2018-07-27T20:05:37.745Z,51.00
2018-07-27T20:08:42.031Z,51.10
2018-07-27T20:11:46.269Z,51.50
2018-07-27T20:14:50.706Z,52.00
2018-07-27T20:17:55.398Z,53.20
2018-07-27T20:20:59.639Z,53.30
2018-07-27T20:24:04.076Z,53.30
2018-07-27T20:27:08.324Z,53.40
2018-07-27T20:30:12.674Z,53.70
2018-07-27T20:33:17.062Z,54.00
2018-07-27T20:36:21.514Z,53.80
2018-07-27T20:39:25.954Z,53.60
2018-07-27T20:42:30.017Z,53.60
2018-07-27T20:45:35.740Z,53.40
2018-07-27T20:48:55.017Z,53.70
2018-07-27T20:52:01.673Z,53.60
2018-07-27T20:55:05.949Z,53.90
2018-07-27T20:58:10.587Z,54.20
2018-07-27T21:01:14.914Z,54.30
2018-07-27T21:04:19.207Z,54.40
2018-07-27T21:07:23.586Z,54.50
2018-07-27T21:10:27.962Z,54.70
2018-07-27T21:13:32.202Z,54.80
2018-07-27T21:16:36.838Z,55.00
2018-07-27T21:19:41.258Z,55.00
2018-07-27T21:22:45.578Z,55.20
2018-07-27T21:25:49.966Z,55.40
2018-07-27T21:28:54.339Z,55.50
2018-07-27T21:31:58.638Z,55.50
2018-07-27T21:35:03.026Z,55.40
2018-07-27T21:41:11.186Z,55.60
2018-07-27T21:44:15.573Z,55.70
2018-07-27T21:47:19.728Z,56.00
2018-07-27T21:50:24.198Z,56.20
2018-07-27T21:53:28.542Z,56.30
2018-07-27T21:56:32.803Z,56.50
2018-07-27T21:59:37.151Z,56.80
2018-07-27T22:02:41.497Z,56.90
2018-07-27T22:05:45.747Z,57.00
2018-07-27T22:08:50.061Z,57.10
2018-07-27T22:11:54.321Z,57.10
2018-07-27T22:14:58.540Z,57.30
2018-07-27T22:18:02.851Z,57.50
2018-07-27T22:21:07.074Z,57.80
2018-07-27T22:24:11.537Z,57.90
2018-07-27T22:27:15.834Z,58.10
2018-07-27T22:30:20.147Z,58.20
2018-07-27T22:33:24.634Z,58.50
2018-07-27T22:36:29.044Z,59.20
2018-07-27T22:39:33.443Z,58.90
2018-07-27T22:42:37.833Z,59.10
2018-07-27T22:45:43.254Z,59.10
2018-07-27T22:48:47.562Z,59.00
2018-07-27T22:51:51.868Z,59.00
2018-07-27T22:54:56.841Z,58.90
2018-07-27T22:58:01.280Z,58.90
2018-07-27T23:01:05.639Z,58.90
2018-07-27T23:04:09.840Z,58.90
2018-07-27T23:07:14.064Z,58.90
2018-07-27T23:10:18.420Z,58.90
2018-07-27T23:13:22.698Z,58.90
2018-07-27T23:16:27.066Z,58.90
2018-07-27T23:19:31.356Z,59.20
2018-07-27T23:22:35.738Z,59.50
2018-07-27T23:28:43.673Z,59.60
2018-07-27T23:31:48.150Z,59.60
2018-07-27T23:34:52.474Z,59.60
2018-07-27T23:37:56.772Z,59.40
2018-07-27T23:41:01.019Z,59.40
2018-07-27T23:44:05.262Z,59.30
2018-07-27T23:47:09.334Z,59.30
2018-07-27T23:50:13.579Z,59.30
2018-07-27T23:53:17.792Z,59.40
2018-07-27T23:56:22.516Z,59.50
2018-07-27T23:59:26.842Z,59.60
